sensor_id;sensor_type;location;lat;lon;timestamp;P1;durP1;ratioP1;P2;durP2;ratioP2
10985;SDS011;5546;48.714;8.738;2023-06-10T00:00:34;7.63;;;6.93;;
10985;SDS011;5546;48.714;8.738;2023-06-10T00:03:00;9.03;;;6.80;;
10985;SDS011;5546;48.714;8.738;2023-06-10T00:05:26;7.40;;;6.70;;
10985;SDS011;5546;48.714;8.738;2023-06-10T00:07:54;7.40;;;6.70;;
10985;SDS011;5546;48.714;8.738;2023-06-10T00:10:21;7.03;;;6.33;;
10985;SDS011;5546;48.714;8.738;2023-06-10T00:12:47;7.60;;;6.77;;
10985;SDS011;5546;48.714;8.738;2023-06-10T00:15:12;7.00;;;6.30;;
10985;SDS011;5546;48.714;8.738;2023-06-10T00:17:38;7.40;;;6.67;;
10985;SDS011;5546;48.714;8.738;2023-06-10T00:20:06;7.20;;;6.50;;
10985;SDS011;5546;48.714;8.738;2023-06-10T00:22:34;8.20;;;6.63;;
10985;SDS011;5546;48.714;8.738;2023-06-10T00:24:59;6.97;;;6.27;;
10985;SDS011;5546;48.714;8.738;2023-06-10T00:27:25;7.53;;;6.83;;
10985;SDS011;5546;48.714;8.738;2023-06-10T00:29:56;7.77;;;7.07;;
10985;SDS011;5546;48.714;8.738;2023-06-10T00:32:22;7.87;;;6.83;;
10985;SDS011;5546;48.714;8.738;2023-06-10T00:34:48;6.93;;;6.40;;
10985;SDS011;5546;48.714;8.738;2023-06-10T00:37:14;7.80;;;6.70;;
10985;SDS011;5546;48.714;8.738;2023-06-10T00:39:40;8.40;;;6.80;;
10985;SDS011;5546;48.714;8.738;2023-06-10T00:42:06;7.90;;;6.53;;
10985;SDS011;5546;48.714;8.738;2023-06-10T00:44:32;8.97;;;7.00;;
10985;SDS011;5546;48.714;8.738;2023-06-10T00:46:58;7.87;;;6.53;;
10985;SDS011;5546;48.714;8.738;2023-06-10T00:49:23;7.17;;;6.47;;
10985;SDS011;5546;48.714;8.738;2023-06-10T00:51:50;7.10;;;6.50;;
10985;SDS011;5546;48.714;8.738;2023-06-10T00:54:17;7.70;;;6.60;;
10985;SDS011;5546;48.714;8.738;2023-06-10T00:56:43;8.33;;;6.60;;
10985;SDS011;5546;48.714;8.738;2023-06-10T00:59:09;7.93;;;7.13;;
10985;SDS011;5546;48.714;8.738;2023-06-10T01:01:34;8.40;;;7.50;;
10985;SDS011;5546;48.714;8.738;2023-06-10T01:04:02;6.87;;;6.27;;
10985;SDS011;5546;48.714;8.738;2023-06-10T01:09:13;8.60;;;6.83;;
10985;SDS011;5546;48.714;8.738;2023-06-10T01:12:10;8.50;;;6.80;;
10985;SDS011;5546;48.714;8.738;2023-06-10T01:14:41;7.40;;;6.70;;
10985;SDS011;5546;48.714;8.738;2023-06-10T01:17:10;7.50;;;6.77;;
10985;SDS011;5546;48.714;8.738;2023-06-10T01:19:36;8.17;;;6.97;;
10985;SDS011;5546;48.714;8.738;2023-06-10T01:22:03;9.50;;;7.13;;
10985;SDS011;5546;48.714;8.738;2023-06-10T01:24:28;11.33;;;7.77;;
10985;SDS011;5546;48.714;8.738;2023-06-10T01:26:57;7.87;;;7.17;;
10985;SDS011;5546;48.714;8.738;2023-06-10T01:29:28;8.03;;;7.30;;
10985;SDS011;5546;48.714;8.738;2023-06-10T01:32:06;8.50;;;7.67;;
10985;SDS011;5546;48.714;8.738;2023-06-10T01:34:37;8.10;;;7.30;;
10985;SDS011;5546;48.714;8.738;2023-06-10T01:37:05;8.60;;;7.70;;
10985;SDS011;5546;48.714;8.738;2023-06-10T01:39:32;10.23;;;7.57;;
10985;SDS011;5546;48.714;8.738;2023-06-10T01:41:58;8.37;;;7.57;;
10985;SDS011;5546;48.714;8.738;2023-06-10T01:44:24;9.07;;;8.23;;
10985;SDS011;5546;48.714;8.738;2023-06-10T01:46:49;7.80;;;7.10;;
10985;SDS011;5546;48.714;8.738;2023-06-10T01:49:15;7.77;;;7.07;;
10985;SDS011;5546;48.714;8.738;2023-06-10T01:51:41;7.73;;;7.00;;
10985;SDS011;5546;48.714;8.738;2023-06-10T01:54:07;9.33;;;7.47;;
10985;SDS011;5546;48.714;8.738;2023-06-10T01:56:32;8.43;;;7.53;;
10985;SDS011;5546;48.714;8.738;2023-06-10T01:58:58;8.13;;;7.33;;
10985;SDS011;5546;48.714;8.738;2023-06-10T02:01:25;8.13;;;7.33;;
10985;SDS011;5546;48.714;8.738;2023-06-10T02:03:50;7.77;;;7.07;;
10985;SDS011;5546;48.714;8.738;2023-06-10T02:06:16;8.10;;;7.40;;
10985;SDS011;5546;48.714;8.738;2023-06-10T02:08:42;9.13;;;7.97;;
10985;SDS011;5546;48.714;8.738;2023-06-10T02:11:08;8.53;;;7.50;;
10985;SDS011;5546;48.714;8.738;2023-06-10T02:13:33;8.07;;;7.37;;
10985;SDS011;5546;48.714;8.738;2023-06-10T02:15:59;8.60;;;7.30;;
10985;SDS011;5546;48.714;8.738;2023-06-10T02:18:25;7.73;;;6.93;;
10985;SDS011;5546;48.714;8.738;2023-06-10T02:20:53;8.13;;;7.30;;
10985;SDS011;5546;48.714;8.738;2023-06-10T02:23:18;8.80;;;7.03;;
10985;SDS011;5546;48.714;8.738;2023-06-10T02:25:44;8.20;;;7.50;;
10985;SDS011;5546;48.714;8.738;2023-06-10T02:28:10;8.00;;;7.20;;
10985;SDS011;5546;48.714;8.738;2023-06-10T02:30:38;8.73;;;7.30;;
10985;SDS011;5546;48.714;8.738;2023-06-10T02:33:07;9.13;;;7.90;;
10985;SDS011;5546;48.714;8.738;2023-06-10T02:35:36;8.93;;;8.03;;
10985;SDS011;5546;48.714;8.738;2023-06-10T02:38:03;8.60;;;7.80;;
10985;SDS011;5546;48.714;8.738;2023-06-10T02:40:29;8.40;;;7.60;;
10985;SDS011;5546;48.714;8.738;2023-06-10T02:42:54;9.10;;;8.30;;
10985;SDS011;5546;48.714;8.738;2023-06-10T02:45:20;8.83;;;7.77;;
10985;SDS011;5546;48.714;8.738;2023-06-10T02:47:46;9.23;;;8.33;;
10985;SDS011;5546;48.714;8.738;2023-06-10T02:50:11;8.90;;;8.10;;
10985;SDS011;5546;48.714;8.738;2023-06-10T02:52:37;10.60;;;8.30;;
10985;SDS011;5546;48.714;8.738;2023-06-10T02:55:03;9.00;;;7.87;;
10985;SDS011;5546;48.714;8.738;2023-06-10T02:57:30;10.00;;;8.37;;
10985;SDS011;5546;48.714;8.738;2023-06-10T02:59:56;8.73;;;7.93;;
10985;SDS011;5546;48.714;8.738;2023-06-10T03:02:23;10.00;;;8.53;;
10985;SDS011;5546;48.714;8.738;2023-06-10T03:04:54;9.47;;;8.33;;
10985;SDS011;5546;48.714;8.738;2023-06-10T03:07:20;9.10;;;7.97;;
10985;SDS011;5546;48.714;8.738;2023-06-10T03:09:46;8.53;;;7.73;;
10985;SDS011;5546;48.714;8.738;2023-06-10T03:12:12;9.00;;;8.13;;
10985;SDS011;5546;48.714;8.738;2023-06-10T03:14:38;9.03;;;8.10;;
10985;SDS011;5546;48.714;8.738;2023-06-10T03:17:04;8.80;;;7.73;;
10985;SDS011;5546;48.714;8.738;2023-06-10T03:19:31;8.90;;;8.10;;
10985;SDS011;5546;48.714;8.738;2023-06-10T03:22:07;8.43;;;7.63;;
10985;SDS011;5546;48.714;8.738;2023-06-10T03:24:34;8.83;;;8.10;;
10985;SDS011;5546;48.714;8.738;2023-06-10T03:27:00;9.37;;;8.47;;
10985;SDS011;5546;48.714;8.738;2023-06-10T03:29:26;9.43;;;8.57;;
10985;SDS011;5546;48.714;8.738;2023-06-10T03:31:52;8.60;;;7.83;;
10985;SDS011;5546;48.714;8.738;2023-06-10T03:34:18;9.40;;;8.00;;
10985;SDS011;5546;48.714;8.738;2023-06-10T03:36:45;9.40;;;8.33;;
10985;SDS011;5546;48.714;8.738;2023-06-10T03:39:10;9.73;;;8.73;;
10985;SDS011;5546;48.714;8.738;2023-06-10T03:41:36;8.90;;;7.97;;
10985;SDS011;5546;48.714;8.738;2023-06-10T03:44:02;8.57;;;7.87;;
10985;SDS011;5546;48.714;8.738;2023-06-10T03:46:28;11.77;;;8.30;;
10985;SDS011;5546;48.714;8.738;2023-06-10T03:48:54;9.53;;;8.63;;
10985;SDS011;5546;48.714;8.738;2023-06-10T03:51:23;9.27;;;8.37;;
10985;SDS011;5546;48.714;8.738;2023-06-10T03:53:48;8.80;;;8.07;;
10985;SDS011;5546;48.714;8.738;2023-06-10T03:56:14;9.17;;;8.30;;
10985;SDS011;5546;48.714;8.738;2023-06-10T03:58:40;10.87;;;9.13;;
10985;SDS011;5546;48.714;8.738;2023-06-10T04:01:05;9.60;;;8.70;;
10985;SDS011;5546;48.714;8.738;2023-06-10T04:03:32;9.37;;;8.57;;
10985;SDS011;5546;48.714;8.738;2023-06-10T04:05:58;10.13;;;9.00;;
10985;SDS011;5546;48.714;8.738;2023-06-10T04:08:24;10.37;;;9.37;;
10985;SDS011;5546;48.714;8.738;2023-06-10T04:10:49;9.33;;;8.37;;
10985;SDS011;5546;48.714;8.738;2023-06-10T04:13:15;9.83;;;8.90;;
10985;SDS011;5546;48.714;8.738;2023-06-10T04:15:41;9.10;;;8.27;;
10985;SDS011;5546;48.714;8.738;2023-06-10T04:18:06;8.83;;;8.13;;
10985;SDS011;5546;48.714;8.738;2023-06-10T04:20:33;9.77;;;8.77;;
10985;SDS011;5546;48.714;8.738;2023-06-10T04:22:59;9.20;;;8.30;;
10985;SDS011;5546;48.714;8.738;2023-06-10T04:25:24;9.33;;;8.43;;
10985;SDS011;5546;48.714;8.738;2023-06-10T04:27:51;9.70;;;8.83;;
10985;SDS011;5546;48.714;8.738;2023-06-10T04:30:16;8.97;;;8.07;;
10985;SDS011;5546;48.714;8.738;2023-06-10T04:32:43;9.83;;;8.83;;
10985;SDS011;5546;48.714;8.738;2023-06-10T04:35:11;9.50;;;8.60;;
10985;SDS011;5546;48.714;8.738;2023-06-10T04:37:37;9.97;;;8.70;;
10985;SDS011;5546;48.714;8.738;2023-06-10T04:40:02;8.97;;;8.17;;
10985;SDS011;5546;48.714;8.738;2023-06-10T04:42:28;9.17;;;8.33;;
10985;SDS011;5546;48.714;8.738;2023-06-10T04:44:53;10.00;;;9.00;;
10985;SDS011;5546;48.714;8.738;2023-06-10T04:47:19;9.37;;;8.57;;
10985;SDS011;5546;48.714;8.738;2023-06-10T04:49:45;8.90;;;8.10;;
10985;SDS011;5546;48.714;8.738;2023-06-10T04:52:10;10.03;;;9.13;;
10985;SDS011;5546;48.714;8.738;2023-06-10T04:54:36;8.47;;;7.77;;
10985;SDS011;5546;48.714;8.738;2023-06-10T04:57:02;9.17;;;8.30;;
10985;SDS011;5546;48.714;8.738;2023-06-10T04:59:27;9.40;;;8.60;;
10985;SDS011;5546;48.714;8.738;2023-06-10T05:01:53;10.20;;;8.50;;
10985;SDS011;5546;48.714;8.738;2023-06-10T05:04:20;8.60;;;7.80;;
10985;SDS011;5546;48.714;8.738;2023-06-10T05:06:45;8.63;;;7.80;;
10985;SDS011;5546;48.714;8.738;2023-06-10T05:09:11;8.60;;;7.83;;
10985;SDS011;5546;48.714;8.738;2023-06-10T05:11:37;8.40;;;7.67;;
10985;SDS011;5546;48.714;8.738;2023-06-10T05:14:02;8.50;;;7.70;;
10985;SDS011;5546;48.714;8.738;2023-06-10T05:16:28;9.53;;;8.63;;
10985;SDS011;5546;48.714;8.738;2023-06-10T05:18:54;9.00;;;8.17;;
10985;SDS011;5546;48.714;8.738;2023-06-10T05:21:20;8.47;;;7.77;;
10985;SDS011;5546;48.714;8.738;2023-06-10T05:23:45;9.07;;;8.13;;
10985;SDS011;5546;48.714;8.738;2023-06-10T05:26:11;8.60;;;7.90;;
10985;SDS011;5546;48.714;8.738;2023-06-10T05:28:37;8.23;;;7.50;;
10985;SDS011;5546;48.714;8.738;2023-06-10T05:31:03;8.07;;;7.33;;
10985;SDS011;5546;48.714;8.738;2023-06-10T05:33:28;7.50;;;6.80;;
10985;SDS011;5546;48.714;8.738;2023-06-10T05:35:54;7.73;;;7.03;;
10985;SDS011;5546;48.714;8.738;2023-06-10T05:38:20;8.17;;;6.80;;
10985;SDS011;5546;48.714;8.738;2023-06-10T05:40:46;7.32;;;6.55;;
10985;SDS011;5546;48.714;8.738;2023-06-10T05:43:12;7.32;;;6.45;;
10985;SDS011;5546;48.714;8.738;2023-06-10T05:45:38;7.88;;;7.18;;
10985;SDS011;5546;48.714;8.738;2023-06-10T05:48:05;9.88;;;7.13;;
10985;SDS011;5546;48.714;8.738;2023-06-10T05:50:30;7.40;;;6.80;;
10985;SDS011;5546;48.714;8.738;2023-06-10T05:52:59;7.18;;;6.47;;
10985;SDS011;5546;48.714;8.738;2023-06-10T05:55:25;7.20;;;6.60;;
10985;SDS011;5546;48.714;8.738;2023-06-10T05:57:58;7.18;;;6.07;;
10985;SDS011;5546;48.714;8.738;2023-06-10T06:00:25;6.82;;;6.22;;
10985;SDS011;5546;48.714;8.738;2023-06-10T06:02:51;7.57;;;6.88;;
10985;SDS011;5546;48.714;8.738;2023-06-10T06:05:17;7.32;;;6.63;;
10985;SDS011;5546;48.714;8.738;2023-06-10T06:07:43;7.10;;;6.40;;
10985;SDS011;5546;48.714;8.738;2023-06-10T06:10:08;6.78;;;6.18;;
10985;SDS011;5546;48.714;8.738;2023-06-10T06:12:34;7.63;;;6.93;;
10985;SDS011;5546;48.714;8.738;2023-06-10T06:14:59;6.60;;;6.00;;
10985;SDS011;5546;48.714;8.738;2023-06-10T06:17:25;6.60;;;6.10;;
10985;SDS011;5546;48.714;8.738;2023-06-10T06:19:50;6.43;;;5.82;;
10985;SDS011;5546;48.714;8.738;2023-06-10T06:22:16;8.10;;;6.35;;
10985;SDS011;5546;48.714;8.738;2023-06-10T06:24:46;6.50;;;6.00;;
10985;SDS011;5546;48.714;8.738;2023-06-10T06:27:11;7.10;;;6.50;;
10985;SDS011;5546;48.714;8.738;2023-06-10T06:29:37;7.00;;;6.40;;
10985;SDS011;5546;48.714;8.738;2023-06-10T06:32:03;6.75;;;6.15;;
10985;SDS011;5546;48.714;8.738;2023-06-10T06:34:28;6.22;;;5.72;;
10985;SDS011;5546;48.714;8.738;2023-06-10T06:36:54;6.63;;;6.10;;
10985;SDS011;5546;48.714;8.738;2023-06-10T06:39:20;7.03;;;6.32;;
10985;SDS011;5546;48.714;8.738;2023-06-10T06:41:45;6.07;;;5.57;;
10985;SDS011;5546;48.714;8.738;2023-06-10T06:44:11;7.85;;;6.15;;
10985;SDS011;5546;48.714;8.738;2023-06-10T06:46:36;6.13;;;5.63;;
10985;SDS011;5546;48.714;8.738;2023-06-10T06:49:02;6.40;;;5.90;;
10985;SDS011;5546;48.714;8.738;2023-06-10T06:51:27;6.20;;;5.70;;
10985;SDS011;5546;48.714;8.738;2023-06-10T06:53:53;6.90;;;6.30;;
10985;SDS011;5546;48.714;8.738;2023-06-10T06:56:21;7.05;;;6.25;;
10985;SDS011;5546;48.714;8.738;2023-06-10T06:58:47;6.90;;;5.90;;
10985;SDS011;5546;48.714;8.738;2023-06-10T07:01:13;6.47;;;5.90;;
10985;SDS011;5546;48.714;8.738;2023-06-10T07:03:38;6.32;;;5.78;;
10985;SDS011;5546;48.714;8.738;2023-06-10T07:06:04;5.68;;;5.28;;
10985;SDS011;5546;48.714;8.738;2023-06-10T07:08:30;5.85;;;5.22;;
10985;SDS011;5546;48.714;8.738;2023-06-10T07:10:55;6.25;;;5.75;;
10985;SDS011;5546;48.714;8.738;2023-06-10T07:13:21;6.25;;;5.53;;
10985;SDS011;5546;48.714;8.738;2023-06-10T07:15:46;6.05;;;5.55;;
10985;SDS011;5546;48.714;8.738;2023-06-10T07:18:14;7.07;;;5.72;;
10985;SDS011;5546;48.714;8.738;2023-06-10T07:20:41;5.95;;;5.45;;
10985;SDS011;5546;48.714;8.738;2023-06-10T07:23:06;5.60;;;5.10;;
10985;SDS011;5546;48.714;8.738;2023-06-10T07:25:32;5.43;;;4.93;;
10985;SDS011;5546;48.714;8.738;2023-06-10T07:27:58;5.50;;;5.05;;
10985;SDS011;5546;48.714;8.738;2023-06-10T07:30:23;6.13;;;5.63;;
10985;SDS011;5546;48.714;8.738;2023-06-10T07:32:49;5.90;;;5.40;;
10985;SDS011;5546;48.714;8.738;2023-06-10T07:35:16;6.03;;;5.40;;
10985;SDS011;5546;48.714;8.738;2023-06-10T07:37:42;6.13;;;5.47;;
10985;SDS011;5546;48.714;8.738;2023-06-10T07:40:08;5.80;;;5.30;;
10985;SDS011;5546;48.714;8.738;2023-06-10T07:42:34;5.57;;;5.07;;
10985;SDS011;5546;48.714;8.738;2023-06-10T07:45:01;4.97;;;4.47;;
10985;SDS011;5546;48.714;8.738;2023-06-10T07:47:27;4.63;;;4.25;;
10985;SDS011;5546;48.714;8.738;2023-06-10T07:49:53;4.97;;;4.53;;
10985;SDS011;5546;48.714;8.738;2023-06-10T07:52:18;5.20;;;4.70;;
10985;SDS011;5546;48.714;8.738;2023-06-10T07:54:44;4.88;;;4.50;;
10985;SDS011;5546;48.714;8.738;2023-06-10T07:57:09;4.85;;;4.45;;
10985;SDS011;5546;48.714;8.738;2023-06-10T07:59:35;4.57;;;4.18;;
10985;SDS011;5546;48.714;8.738;2023-06-10T08:02:01;4.60;;;4.20;;
10985;SDS011;5546;48.714;8.738;2023-06-10T08:04:26;4.88;;;4.47;;
10985;SDS011;5546;48.714;8.738;2023-06-10T08:06:52;5.15;;;4.75;;
10985;SDS011;5546;48.714;8.738;2023-06-10T08:09:17;4.70;;;4.30;;
10985;SDS011;5546;48.714;8.738;2023-06-10T08:11:43;4.40;;;4.00;;
10985;SDS011;5546;48.714;8.738;2023-06-10T08:14:09;4.88;;;4.50;;
10985;SDS011;5546;48.714;8.738;2023-06-10T08:16:34;4.50;;;4.10;;
10985;SDS011;5546;48.714;8.738;2023-06-10T08:19:00;4.50;;;4.15;;
10985;SDS011;5546;48.714;8.738;2023-06-10T08:21:25;4.63;;;4.25;;
10985;SDS011;5546;48.714;8.738;2023-06-10T08:23:53;4.78;;;4.38;;
10985;SDS011;5546;48.714;8.738;2023-06-10T08:26:19;4.20;;;3.90;;
10985;SDS011;5546;48.714;8.738;2023-06-10T08:28:45;4.30;;;4.00;;
10985;SDS011;5546;48.714;8.738;2023-06-10T08:31:10;4.60;;;4.30;;
10985;SDS011;5546;48.714;8.738;2023-06-10T08:33:36;4.15;;;3.85;;
10985;SDS011;5546;48.714;8.738;2023-06-10T08:36:01;4.38;;;3.97;;
10985;SDS011;5546;48.714;8.738;2023-06-10T08:38:27;3.95;;;3.63;;
10985;SDS011;5546;48.714;8.738;2023-06-10T08:40:54;4.00;;;3.70;;
10985;SDS011;5546;48.714;8.738;2023-06-10T08:43:32;4.30;;;4.00;;
10985;SDS011;5546;48.714;8.738;2023-06-10T08:46:02;4.20;;;3.70;;
10985;SDS011;5546;48.714;8.738;2023-06-10T08:48:29;4.97;;;4.45;;
10985;SDS011;5546;48.714;8.738;2023-06-10T08:50:56;4.65;;;4.22;;
10985;SDS011;5546;48.714;8.738;2023-06-10T08:53:22;5.50;;;4.70;;
10985;SDS011;5546;48.714;8.738;2023-06-10T08:55:51;4.78;;;4.38;;
10985;SDS011;5546;48.714;8.738;2023-06-10T08:58:17;4.85;;;4.43;;
10985;SDS011;5546;48.714;8.738;2023-06-10T09:00:43;5.00;;;4.60;;
10985;SDS011;5546;48.714;8.738;2023-06-10T09:03:09;5.22;;;4.78;;
10985;SDS011;5546;48.714;8.738;2023-06-10T09:05:36;5.85;;;4.32;;
10985;SDS011;5546;48.714;8.738;2023-06-10T09:08:02;4.25;;;3.95;;
10985;SDS011;5546;48.714;8.738;2023-06-10T09:10:28;8.52;;;4.07;;
10985;SDS011;5546;48.714;8.738;2023-06-10T09:12:55;4.60;;;4.20;;
10985;SDS011;5546;48.714;8.738;2023-06-10T09:15:21;4.80;;;4.18;;
10985;SDS011;5546;48.714;8.738;2023-06-10T09:17:47;5.32;;;4.50;;
10985;SDS011;5546;48.714;8.738;2023-06-10T09:20:12;4.65;;;4.25;;
10985;SDS011;5546;48.714;8.738;2023-06-10T09:22:38;5.93;;;4.00;;
10985;SDS011;5546;48.714;8.738;2023-06-10T09:25:04;4.22;;;3.92;;
10985;SDS011;5546;48.714;8.738;2023-06-10T09:27:33;4.07;;;3.63;;
10985;SDS011;5546;48.714;8.738;2023-06-10T09:30:28;4.10;;;3.80;;
10985;SDS011;5546;48.714;8.738;2023-06-10T09:32:56;3.75;;;3.45;;
10985;SDS011;5546;48.714;8.738;2023-06-10T09:35:23;4.22;;;3.85;;
10985;SDS011;5546;48.714;8.738;2023-06-10T09:37:50;4.53;;;4.13;;
10985;SDS011;5546;48.714;8.738;2023-06-10T09:40:17;4.15;;;3.85;;
10985;SDS011;5546;48.714;8.738;2023-06-10T09:42:43;4.18;;;3.72;;
10985;SDS011;5546;48.714;8.738;2023-06-10T09:45:08;4.63;;;4.03;;
10985;SDS011;5546;48.714;8.738;2023-06-10T09:47:34;5.10;;;4.70;;
10985;SDS011;5546;48.714;8.738;2023-06-10T09:49:59;4.95;;;4.45;;
10985;SDS011;5546;48.714;8.738;2023-06-10T09:52:27;4.72;;;4.30;;
10985;SDS011;5546;48.714;8.738;2023-06-10T09:54:55;4.53;;;4.22;;
10985;SDS011;5546;48.714;8.738;2023-06-10T09:57:31;4.50;;;4.10;;
10985;SDS011;5546;48.714;8.738;2023-06-10T10:00:04;4.53;;;4.22;;
10985;SDS011;5546;48.714;8.738;2023-06-10T10:02:47;4.93;;;4.50;;
10985;SDS011;5546;48.714;8.738;2023-06-10T10:05:18;4.40;;;4.05;;
10985;SDS011;5546;48.714;8.738;2023-06-10T10:07:45;4.80;;;4.30;;
10985;SDS011;5546;48.714;8.738;2023-06-10T10:10:12;4.57;;;4.18;;
10985;SDS011;5546;48.714;8.738;2023-06-10T10:12:39;4.65;;;4.22;;
10985;SDS011;5546;48.714;8.738;2023-06-10T10:15:06;5.55;;;4.45;;
10985;SDS011;5546;48.714;8.738;2023-06-10T10:17:46;4.47;;;4.07;;
10985;SDS011;5546;48.714;8.738;2023-06-10T10:20:16;4.85;;;4.38;;
10985;SDS011;5546;48.714;8.738;2023-06-10T10:22:45;4.78;;;4.35;;
10985;SDS011;5546;48.714;8.738;2023-06-10T10:25:16;4.55;;;4.15;;
10985;SDS011;5546;48.714;8.738;2023-06-10T10:27:48;4.03;;;3.70;;
10985;SDS011;5546;48.714;8.738;2023-06-10T10:30:17;4.47;;;4.15;;
10985;SDS011;5546;48.714;8.738;2023-06-10T10:35:29;4.25;;;3.92;;
10985;SDS011;5546;48.714;8.738;2023-06-10T10:37:57;4.03;;;3.72;;
10985;SDS011;5546;48.714;8.738;2023-06-10T10:40:23;4.05;;;3.75;;
10985;SDS011;5546;48.714;8.738;2023-06-10T10:42:51;4.30;;;3.90;;
10985;SDS011;5546;48.714;8.738;2023-06-10T10:45:18;4.18;;;3.88;;
10985;SDS011;5546;48.714;8.738;2023-06-10T10:47:46;5.35;;;3.83;;
10985;SDS011;5546;48.714;8.738;2023-06-10T10:50:19;4.15;;;3.78;;
10985;SDS011;5546;48.714;8.738;2023-06-10T10:52:53;5.03;;;4.53;;
10985;SDS011;5546;48.714;8.738;2023-06-10T10:55:26;4.55;;;3.90;;
10985;SDS011;5546;48.714;8.738;2023-06-10T10:58:06;4.53;;;4.20;;
10985;SDS011;5546;48.714;8.738;2023-06-10T11:00:36;4.93;;;4.40;;
10985;SDS011;5546;48.714;8.738;2023-06-10T11:05:32;5.93;;;5.32;;
10985;SDS011;5546;48.714;8.738;2023-06-10T11:08:04;4.72;;;4.32;;
10985;SDS011;5546;48.714;8.738;2023-06-10T11:10:38;4.70;;;4.28;;
10985;SDS011;5546;48.714;8.738;2023-06-10T11:13:14;4.72;;;4.22;;
10985;SDS011;5546;48.714;8.738;2023-06-10T11:15:44;4.20;;;3.90;;
10985;SDS011;5546;48.714;8.738;2023-06-10T11:18:24;4.28;;;3.88;;
10985;SDS011;5546;48.714;8.738;2023-06-10T11:20:51;3.85;;;3.55;;
10985;SDS011;5546;48.714;8.738;2023-06-10T11:31:20;4.68;;;4.22;;
10985;SDS011;5546;48.714;8.738;2023-06-10T11:33:52;4.88;;;4.03;;
10985;SDS011;5546;48.714;8.738;2023-06-10T11:36:18;4.10;;;3.70;;
10985;SDS011;5546;48.714;8.738;2023-06-10T11:38:44;4.20;;;3.90;;
10985;SDS011;5546;48.714;8.738;2023-06-10T11:41:13;4.22;;;3.83;;
10985;SDS011;5546;48.714;8.738;2023-06-10T11:43:45;4.90;;;4.40;;
10985;SDS011;5546;48.714;8.738;2023-06-10T11:46:11;4.13;;;3.83;;
10985;SDS011;5546;48.714;8.738;2023-06-10T11:48:53;4.60;;;4.20;;
10985;SDS011;5546;48.714;8.738;2023-06-10T11:51:26;6.22;;;4.15;;
10985;SDS011;5546;48.714;8.738;2023-06-10T11:53:53;4.43;;;3.85;;
10985;SDS011;5546;48.714;8.738;2023-06-10T11:56:20;5.15;;;4.35;;
10985;SDS011;5546;48.714;8.738;2023-06-10T11:58:46;5.07;;;4.68;;
10985;SDS011;5546;48.714;8.738;2023-06-10T12:01:29;4.78;;;4.38;;
10985;SDS011;5546;48.714;8.738;2023-06-10T12:04:00;4.80;;;4.32;;
10985;SDS011;5546;48.714;8.738;2023-06-10T12:06:37;5.03;;;4.57;;
10985;SDS011;5546;48.714;8.738;2023-06-10T12:09:04;4.47;;;4.07;;
10985;SDS011;5546;48.714;8.738;2023-06-10T12:11:30;4.68;;;4.28;;
10985;SDS011;5546;48.714;8.738;2023-06-10T12:13:56;5.00;;;4.10;;
10985;SDS011;5546;48.714;8.738;2023-06-10T12:16:21;4.88;;;4.47;;
10985;SDS011;5546;48.714;8.738;2023-06-10T12:18:47;4.75;;;3.83;;
10985;SDS011;5546;48.714;8.738;2023-06-10T12:21:17;4.20;;;3.90;;
10985;SDS011;5546;48.714;8.738;2023-06-10T12:26:38;4.78;;;4.38;;
10985;SDS011;5546;48.714;8.738;2023-06-10T12:29:23;4.75;;;4.32;;
10985;SDS011;5546;48.714;8.738;2023-06-10T12:31:59;4.20;;;3.90;;
10985;SDS011;5546;48.714;8.738;2023-06-10T12:34:35;4.45;;;4.05;;
10985;SDS011;5546;48.714;8.738;2023-06-10T12:37:02;4.32;;;3.92;;
10985;SDS011;5546;48.714;8.738;2023-06-10T12:39:29;4.60;;;4.22;;
10985;SDS011;5546;48.714;8.738;2023-06-10T12:41:56;4.63;;;4.25;;
10985;SDS011;5546;48.714;8.738;2023-06-10T12:44:29;4.30;;;3.90;;
10985;SDS011;5546;48.714;8.738;2023-06-10T12:46:55;4.70;;;4.30;;
10985;SDS011;5546;48.714;8.738;2023-06-10T12:49:21;4.75;;;4.35;;
10985;SDS011;5546;48.714;8.738;2023-06-10T12:51:47;6.10;;;4.70;;
10985;SDS011;5546;48.714;8.738;2023-06-10T12:54:12;4.30;;;4.00;;
10985;SDS011;5546;48.714;8.738;2023-06-10T12:56:38;4.65;;;4.07;;
10985;SDS011;5546;48.714;8.738;2023-06-10T12:59:04;4.68;;;4.28;;
10985;SDS011;5546;48.714;8.738;2023-06-10T13:01:29;5.45;;;4.25;;
10985;SDS011;5546;48.714;8.738;2023-06-10T13:03:56;4.97;;;4.57;;
10985;SDS011;5546;48.714;8.738;2023-06-10T13:06:22;4.40;;;4.10;;
10985;SDS011;5546;48.714;8.738;2023-06-10T13:08:48;4.40;;;4.00;;
10985;SDS011;5546;48.714;8.738;2023-06-10T13:11:13;4.57;;;4.18;;
10985;SDS011;5546;48.714;8.738;2023-06-10T13:13:39;5.63;;;4.32;;
10985;SDS011;5546;48.714;8.738;2023-06-10T13:16:05;5.00;;;4.30;;
10985;SDS011;5546;48.714;8.738;2023-06-10T13:18:32;4.35;;;4.05;;
10985;SDS011;5546;48.714;8.738;2023-06-10T13:21:02;4.45;;;4.05;;
10985;SDS011;5546;48.714;8.738;2023-06-10T13:23:28;4.38;;;4.07;;
10985;SDS011;5546;48.714;8.738;2023-06-10T13:25:56;5.18;;;4.15;;
10985;SDS011;5546;48.714;8.738;2023-06-10T13:28:22;4.20;;;3.90;;
10985;SDS011;5546;48.714;8.738;2023-06-10T13:30:47;4.40;;;3.78;;
10985;SDS011;5546;48.714;8.738;2023-06-10T13:33:13;4.50;;;4.18;;
10985;SDS011;5546;48.714;8.738;2023-06-10T13:35:39;4.28;;;3.80;;
10985;SDS011;5546;48.714;8.738;2023-06-10T13:38:06;4.25;;;3.85;;
10985;SDS011;5546;48.714;8.738;2023-06-10T13:40:32;4.28;;;3.97;;
10985;SDS011;5546;48.714;8.738;2023-06-10T13:42:57;5.00;;;4.43;;
10985;SDS011;5546;48.714;8.738;2023-06-10T13:45:23;4.43;;;3.95;;
10985;SDS011;5546;48.714;8.738;2023-06-10T13:47:49;4.50;;;4.10;;
10985;SDS011;5546;48.714;8.738;2023-06-10T13:50:15;4.47;;;4.07;;
10985;SDS011;5546;48.714;8.738;2023-06-10T13:52:40;4.60;;;4.20;;
10985;SDS011;5546;48.714;8.738;2023-06-10T13:55:06;4.80;;;4.40;;
10985;SDS011;5546;48.714;8.738;2023-06-10T13:57:32;4.38;;;3.97;;
10985;SDS011;5546;48.714;8.738;2023-06-10T13:59:57;4.25;;;3.90;;
10985;SDS011;5546;48.714;8.738;2023-06-10T14:02:23;4.65;;;3.97;;
10985;SDS011;5546;48.714;8.738;2023-06-10T14:04:48;4.90;;;3.60;;
10985;SDS011;5546;48.714;8.738;2023-06-10T14:07:14;4.10;;;3.80;;
10985;SDS011;5546;48.714;8.738;2023-06-10T14:09:40;4.40;;;4.00;;
10985;SDS011;5546;48.714;8.738;2023-06-10T14:12:06;4.68;;;4.28;;
10985;SDS011;5546;48.714;8.738;2023-06-10T14:14:31;4.40;;;3.55;;
10985;SDS011;5546;48.714;8.738;2023-06-10T14:16:58;4.50;;;4.10;;
10985;SDS011;5546;48.714;8.738;2023-06-10T14:19:24;4.30;;;3.90;;
10985;SDS011;5546;48.714;8.738;2023-06-10T14:21:50;4.93;;;3.90;;
10985;SDS011;5546;48.714;8.738;2023-06-10T14:24:18;5.05;;;3.95;;
10985;SDS011;5546;48.714;8.738;2023-06-10T14:26:43;4.45;;;3.85;;
10985;SDS011;5546;48.714;8.738;2023-06-10T14:29:09;4.43;;;3.90;;
10985;SDS011;5546;48.714;8.738;2023-06-10T14:31:35;4.18;;;3.88;;
10985;SDS011;5546;48.714;8.738;2023-06-10T14:34:00;4.40;;;4.03;;
10985;SDS011;5546;48.714;8.738;2023-06-10T14:36:26;4.63;;;4.18;;
10985;SDS011;5546;48.714;8.738;2023-06-10T14:38:52;3.72;;;3.42;;
10985;SDS011;5546;48.714;8.738;2023-06-10T14:41:18;4.18;;;3.63;;
10985;SDS011;5546;48.714;8.738;2023-06-10T14:43:44;4.00;;;3.60;;
10985;SDS011;5546;48.714;8.738;2023-06-10T14:46:10;4.20;;;3.90;;
10985;SDS011;5546;48.714;8.738;2023-06-10T14:48:35;3.80;;;3.50;;
10985;SDS011;5546;48.714;8.738;2023-06-10T14:51:01;4.13;;;3.72;;
10985;SDS011;5546;48.714;8.738;2023-06-10T14:53:27;3.70;;;3.33;;
10985;SDS011;5546;48.714;8.738;2023-06-10T14:55:52;3.78;;;3.47;;
10985;SDS011;5546;48.714;8.738;2023-06-10T14:58:18;4.63;;;3.22;;
10985;SDS011;5546;48.714;8.738;2023-06-10T15:00:44;3.85;;;3.55;;
10985;SDS011;5546;48.714;8.738;2023-06-10T15:03:09;3.60;;;3.30;;
10985;SDS011;5546;48.714;8.738;2023-06-10T15:05:35;4.88;;;3.42;;
10985;SDS011;5546;48.714;8.738;2023-06-10T15:08:02;3.83;;;3.53;;
10985;SDS011;5546;48.714;8.738;2023-06-10T15:10:28;3.72;;;3.40;;
10985;SDS011;5546;48.714;8.738;2023-06-10T15:12:53;4.13;;;3.63;;
10985;SDS011;5546;48.714;8.738;2023-06-10T15:15:24;4.82;;;3.22;;
10985;SDS011;5546;48.714;8.738;2023-06-10T15:17:50;4.18;;;3.78;;